Time;durP1;ratioP1;P1;durP2;ratioP2;P2;SDS_P1;SDS_P2;PMS_P1;PMS_P2;Temp;Humidity;BMP_temperature;BMP_pressure;BME280_temperature;BME280_humidity;BME280_pressure;Samples;Min_cycle;Max_cycle;Signal;HPM_P1;HPM_P2
2022/05/28 00:01:24;;;;;;;6.60;1.80;;;;;;;24.52;36.81;102322.19;5108355;28;20540;-47
2022/05/28 00:03:57;;;;;;;5.28;1.67;;;;;;;24.53;36.66;102326.59;5108297;28;20118;-44
2022/05/28 00:06:28;;;;;;;7.93;2.15;;;;;;;24.50;36.76;102316.00;5108299;28;20074;-43
2022/05/28 00:08:57;;;;;;;7.03;2.25;;;;;;;24.49;36.93;102312.50;5108099;28;20066;-47
2022/05/28 00:11:29;;;;;;;6.32;1.63;;;;;;;24.41;37.05;102317.50;5107360;28;20133;-44
2022/05/28 00:13:57;;;;;;;8.40;2.17;;;;;;;24.41;37.05;102312.25;5107614;28;20062;-44
2022/05/28 00:16:26;;;;;;;6.47;1.95;;;;;;;24.42;36.74;102314.03;5085171;28;20080;-44
2022/05/28 00:18:55;;;;;;;6.80;1.95;;;;;;;24.48;36.50;102299.34;5074548;28;20107;-44
2022/05/28 00:21:25;;;;;;;5.50;1.63;;;;;;;24.34;36.46;102286.66;5106509;28;20028;-44
2022/05/28 00:23:53;;;;;;;6.57;2.05;;;;;;;24.44;36.72;102295.72;5108193;27;20370;-44
2022/05/28 00:26:22;;;;;;;6.47;2.22;;;;;;;24.46;36.67;102330.75;5107650;28;20019;-47
2022/05/28 00:28:51;;;;;;;9.27;1.90;;;;;;;24.50;36.46;102313.38;5096629;28;20032;-44
2022/05/28 00:31:20;;;;;;;7.70;1.95;;;;;;;24.47;37.07;102308.06;5106053;28;20034;-45
2022/05/28 00:33:48;;;;;;;7.05;2.38;;;;;;;24.43;36.95;102301.81;5107400;28;20031;-48
2022/05/28 00:36:17;;;;;;;6.25;2.00;;;;;;;24.42;36.73;102308.78;5107015;28;20043;-46
2022/05/28 00:38:46;;;;;;;7.35;1.88;;;;;;;24.49;36.60;102304.63;5107164;28;20054;-46
2022/05/28 00:41:15;;;;;;;6.38;2.35;;;;;;;24.34;37.19;102297.16;5105768;28;20059;-43
2022/05/28 00:43:45;;;;;;;7.32;1.85;;;;;;;24.27;37.14;102287.31;5107535;28;20423;-44
2022/05/28 00:46:20;;;;;;;7.15;1.95;;;;;;;24.24;36.75;102290.72;5106368;28;20054;-44
2022/05/28 00:48:51;;;;;;;9.45;1.95;;;;;;;24.36;36.58;102299.84;5106118;28;20075;-44
2022/05/28 00:51:23;;;;;;;5.80;2.13;;;;;;;24.39;36.76;102279.84;5075098;28;20038;-44
2022/05/28 00:53:54;;;;;;;5.80;2.10;;;;;;;24.39;36.71;102281.59;5105694;28;20032;-46
2022/05/28 00:56:24;;;;;;;8.18;1.85;;;;;;;24.42;36.68;102285.19;5107503;28;20521;-44
2022/05/28 00:58:53;;;;;;;6.18;2.00;;;;;;;24.36;36.45;102278.84;5107512;28;20031;-45
2022/05/28 01:01:23;;;;;;;6.57;2.00;;;;;;;24.34;36.96;102281.41;5095506;28;20031;-44
2022/05/28 01:04:29;;;;;;;6.95;2.08;;;;;;;24.36;36.66;102279.72;5107039;28;20072;-44
2022/05/28 01:07:01;;;;;;;5.85;2.15;;;;;;;24.29;36.88;102275.16;5099271;28;20115;-44
2022/05/28 01:09:37;;;;;;;9.82;2.58;;;;;;;24.32;36.79;102263.84;5107236;28;20024;-44
2022/05/28 01:12:11;;;;;;;5.93;2.42;;;;;;;24.31;37.21;102268.22;5106635;28;20315;-44
2022/05/28 01:14:58;;;;;;;10.23;2.05;;;;;;;24.28;36.66;102255.88;5078694;28;20023;-44
2022/05/28 01:17:35;;;;;;;9.00;2.15;;;;;;;24.27;36.68;102263.72;5106516;28;20134;-47
2022/05/28 01:20:17;;;;;;;7.68;2.33;;;;;;;24.25;36.74;102254.91;5106638;28;20028;-44
2022/05/28 01:23:12;;;;;;;7.85;2.15;;;;;;;24.30;36.62;102255.97;5106793;28;20028;-44
2022/05/28 01:25:49;;;;;;;5.53;1.92;;;;;;;24.30;36.60;102250.72;5103057;28;20036;-45
2022/05/28 01:28:20;;;;;;;6.03;2.05;;;;;;;24.30;36.93;102253.34;5106554;28;20088;-45
2022/05/28 01:30:49;;;;;;;7.57;2.33;;;;;;;24.21;36.92;102243.44;5105065;28;20023;-45
2022/05/28 01:33:18;;;;;;;7.75;1.88;;;;;;;24.23;36.49;102240.84;5106200;28;20039;-45
2022/05/28 01:35:48;;;;;;;6.32;1.95;;;;;;;24.24;36.75;102247.88;5104734;28;20027;-47
2022/05/28 01:38:18;;;;;;;6.25;2.20;;;;;;;24.21;36.61;102237.28;5106447;28;20070;-44
2022/05/28 01:40:47;;;;;;;7.82;1.95;;;;;;;24.19;36.98;102239.88;5105894;28;20028;-44
2022/05/28 01:43:18;;;;;;;5.65;2.15;;;;;;;24.17;36.79;102233.69;5106514;28;20027;-47
2022/05/28 01:45:47;;;;;;;9.48;2.28;;;;;;;24.17;36.97;102244.16;5106451;28;20028;-46
2022/05/28 01:48:17;;;;;;;8.77;2.20;;;;;;;24.06;36.66;102237.69;5105161;28;20062;-44
2022/05/28 01:50:48;;;;;;;8.60;2.40;;;;;;;23.95;37.16;102243.41;5104825;28;20051;-45
2022/05/28 01:56:07;;;;;;;9.32;2.28;;;;;;;24.04;36.69;102234.13;5101224;28;20044;-43
2022/05/28 01:58:36;;;;;;;7.85;2.00;;;;;;;23.98;36.59;102232.19;5104366;28;20557;-44
2022/05/28 02:01:06;;;;;;;7.60;2.35;;;;;;;24.06;36.53;102230.72;5104757;28;20365;-44
2022/05/28 02:03:37;;;;;;;6.72;2.10;;;;;;;24.09;36.83;102224.66;5087957;28;20046;-45
2022/05/28 02:06:05;;;;;;;10.57;3.30;;;;;;;24.18;36.57;102226.69;5104642;28;20426;-44
2022/05/28 02:08:38;;;;;;;6.25;2.10;;;;;;;23.98;36.74;102203.38;5106027;28;20071;-45
2022/05/28 02:11:12;;;;;;;8.30;2.08;;;;;;;24.04;36.83;102216.66;5105747;28;20056;-44
2022/05/28 02:13:51;;;;;;;8.10;2.20;;;;;;;24.05;36.71;102225.44;5105168;28;20097;-44
2022/05/28 02:16:23;;;;;;;6.03;1.88;;;;;;;24.10;36.65;102218.56;5103831;28;20027;-44
2022/05/28 02:18:56;;;;;;;4.88;1.83;;;;;;;24.11;36.70;102223.91;5104148;28;20031;-44
2022/05/28 02:21:36;;;;;;;7.40;2.20;;;;;;;24.12;36.30;102216.91;5087203;28;20138;-44
2022/05/28 02:24:16;;;;;;;7.45;2.50;;;;;;;24.02;36.66;102197.38;5097348;28;20028;-45
2022/05/28 02:26:57;;;;;;;6.35;1.83;;;;;;;24.10;36.38;102208.09;5104519;28;20106;-44
2022/05/28 02:29:26;;;;;;;8.57;2.20;;;;;;;24.06;36.39;102206.25;5087629;28;20385;-44
2022/05/28 02:31:55;;;;;;;9.45;2.72;;;;;;;24.04;36.59;102203.56;5103817;28;20051;-45
2022/05/28 02:34:24;;;;;;;11.00;2.58;;;;;;;24.02;36.61;102197.38;5103988;28;20085;-43
2022/05/28 02:36:53;;;;;;;7.35;2.25;;;;;;;24.01;36.56;102197.31;5105387;28;20433;-44
2022/05/28 02:39:21;;;;;;;8.50;2.20;;;;;;;23.96;36.94;102199.78;5105214;28;20042;-45
2022/05/28 02:41:50;;;;;;;6.75;2.08;;;;;;;24.01;36.34;102192.97;5104809;28;20385;-45
2022/05/28 02:44:18;;;;;;;9.00;2.42;;;;;;;24.08;36.10;102199.28;5104506;27;20027;-44
2022/05/28 02:46:47;;;;;;;6.05;2.08;;;;;;;24.09;36.62;102195.81;5104725;28;20031;-44
2022/05/28 02:49:15;;;;;;;5.63;2.00;;;;;;;24.10;36.43;102195.00;5104975;28;20481;-46
2022/05/28 02:51:44;;;;;;;9.02;2.25;;;;;;;24.06;36.18;102185.28;5104828;28;20397;-45
2022/05/28 02:54:12;;;;;;;6.20;1.67;;;;;;;23.98;36.43;102187.66;5104971;28;20034;-50
2022/05/28 02:56:40;;;;;;;4.82;1.50;;;;;;;24.03;36.31;102182.53;5104587;28;20085;-46
2022/05/28 02:59:09;;;;;;;6.32;1.80;;;;;;;24.04;36.29;102181.69;5104605;28;20032;-52
2022/05/28 03:01:38;;;;;;;7.18;2.13;;;;;;;24.00;36.30;102183.31;5104239;28;20369;-44
2022/05/28 03:04:06;;;;;;;7.72;2.20;;;;;;;23.99;36.46;102184.19;5104534;28;20114;-46
2022/05/28 03:06:36;;;;;;;9.68;2.15;;;;;;;24.03;36.42;102177.31;5104786;28;20034;-50
2022/05/28 03:09:06;;;;;;;7.30;2.38;;;;;;;23.97;36.43;102175.38;5104556;28;20020;-45
2022/05/28 03:11:34;;;;;;;6.72;2.22;;;;;;;23.92;36.15;102167.31;5103930;28;20079;-51
2022/05/28 03:14:02;;;;;;;6.63;2.10;;;;;;;23.94;35.81;102159.50;5104598;28;20040;-45
2022/05/28 03:16:31;;;;;;;5.45;2.22;;;;;;;24.07;36.34;102187.94;5104088;28;20088;-51
2022/05/28 03:19:00;;;;;;;7.22;2.28;;;;;;;23.96;36.32;102176.19;5103139;28;20028;-44
2022/05/28 03:21:28;;;;;;;7.22;1.95;;;;;;;23.96;36.43;102177.09;5104003;28;20476;-52
2022/05/28 03:23:57;;;;;;;6.22;2.15;;;;;;;23.99;36.11;102181.56;5103817;28;20042;-44
2022/05/28 03:26:28;;;;;;;7.25;2.08;;;;;;;24.00;36.00;102190.31;5103684;28;20114;-48
2022/05/28 03:28:57;;;;;;;9.90;2.33;;;;;;;24.00;36.09;102185.94;5104316;28;20434;-45
2022/05/28 03:31:27;;;;;;;5.13;1.58;;;;;;;23.94;36.15;102177.88;5104446;28;20034;-44
2022/05/28 03:33:56;;;;;;;3.92;1.63;;;;;;;23.99;35.99;102180.66;5104174;28;20032;-45
2022/05/28 03:36:25;;;;;;;9.77;2.58;;;;;;;24.01;36.10;102181.59;5104278;28;20461;-45
2022/05/28 03:38:53;;;;;;;6.28;2.03;;;;;;;23.95;36.39;102177.03;5103985;28;20103;-46
2022/05/28 03:41:23;;;;;;;4.80;1.65;;;;;;;24.00;35.96;102175.44;5103772;28;20024;-51
2022/05/28 03:43:51;;;;;;;7.28;2.38;;;;;;;23.95;36.28;102185.75;5102818;28;20075;-49
2022/05/28 03:46:25;;;;;;;4.57;1.75;;;;;;;23.99;36.02;102178.94;5103999;28;20027;-45
2022/05/28 03:48:57;;;;;;;7.25;2.15;;;;;;;23.96;36.01;102184.03;5104378;28;20028;-47
2022/05/28 03:51:26;;;;;;;5.57;1.92;;;;;;;23.99;36.08;102184.19;5103973;28;20081;-45
2022/05/28 03:53:54;;;;;;;7.25;2.30;;;;;;;23.98;36.26;102179.78;5104051;28;20061;-44
2022/05/28 03:56:24;;;;;;;7.60;2.30;;;;;;;23.91;36.21;102176.00;5104173;28;20038;-50
2022/05/28 03:58:52;;;;;;;5.97;1.65;;;;;;;23.93;36.04;102178.69;5104123;28;20472;-47
2022/05/28 04:01:21;;;;;;;7.38;1.92;;;;;;;23.93;36.32;102178.69;5102964;28;20396;-50
2022/05/28 04:03:49;;;;;;;6.57;2.00;;;;;;;23.78;36.18;102152.88;5103938;28;20227;-49
2022/05/28 04:06:18;;;;;;;7.43;1.92;;;;;;;23.91;36.10;102176.00;5103959;28;20511;-45
2022/05/28 04:08:47;;;;;;;6.97;2.10;;;;;;;23.87;35.72;102176.78;5104013;28;20036;-46
2022/05/28 04:11:17;;;;;;;6.40;2.80;;;;;;;23.90;36.00;102178.59;5103745;28;20059;-45
2022/05/28 04:13:46;;;;;;;8.30;2.00;;;;;;;23.91;36.05;102176.00;5086462;28;20469;-44
2022/05/28 04:16:15;;;;;;;5.70;1.83;;;;;;;23.92;36.08;102179.53;5103833;28;20043;-50
2022/05/28 04:18:44;;;;;;;7.18;2.33;;;;;;;23.87;35.91;102162.75;5103810;28;20027;-44
2022/05/28 04:21:12;;;;;;;5.85;1.88;;;;;;;23.77;35.49;102136.28;5103523;28;20093;-46
2022/05/28 04:23:41;;;;;;;5.63;1.70;;;;;;;23.86;35.57;102166.22;5103840;28;20039;-46
2022/05/28 04:26:10;;;;;;;6.65;2.47;;;;;;;23.85;35.65;102164.44;5103406;28;20019;-47
2022/05/28 04:28:38;;;;;;;8.00;2.40;;;;;;;23.74;36.28;102159.75;5103397;28;20067;-45
2022/05/28 04:31:07;;;;;;;7.43;2.50;;;;;;;23.67;35.77;102152.50;5103667;28;20024;-49
2022/05/28 04:33:35;;;;;;;4.80;1.70;;;;;;;23.75;35.72;102156.28;5103682;28;20043;-43
2022/05/28 04:36:04;;;;;;;6.63;2.05;;;;;;;23.79;35.95;102145.09;5103457;28;20031;-46
2022/05/28 04:38:32;;;;;;;8.23;2.65;;;;;;;23.71;36.19;102136.06;5104806;28;20027;-47
2022/05/28 04:41:01;;;;;;;10.85;2.58;;;;;;;23.76;35.75;102157.16;5107256;28;20043;-50
2022/05/28 04:43:30;;;;;;;6.28;1.80;;;;;;;23.72;35.92;102156.19;5107228;28;20035;-45
2022/05/28 04:45:59;;;;;;;10.75;2.33;;;;;;;23.74;35.82;102154.50;5107523;28;20034;-44
2022/05/28 04:48:27;;;;;;;7.05;2.55;;;;;;;23.64;35.74;102158.56;5107581;28;20032;-46
2022/05/28 04:50:56;;;;;;;5.35;1.70;;;;;;;23.62;35.94;102161.97;5107447;28;20490;-47
2022/05/28 04:53:24;;;;;;;4.28;1.60;;;;;;;23.55;36.31;102160.88;5106978;28;20058;-43
2022/05/28 04:55:53;;;;;;;6.18;2.15;;;;;;;23.63;36.25;102163.75;5098768;28;20027;-44
2022/05/28 04:58:22;;;;;;;6.30;1.98;;;;;;;23.67;35.72;102152.50;5106921;28;20492;-44
2022/05/28 05:00:50;;;;;;;9.63;2.53;;;;;;;23.69;36.18;102152.59;5106863;28;20043;-44
2022/05/28 05:03:18;;;;;;;6.20;2.30;;;;;;;23.70;35.76;102154.38;5105471;28;20031;-47
2022/05/28 05:05:46;;;;;;;6.85;2.08;;;;;;;23.65;35.98;102157.72;5107237;28;20019;-44
2022/05/28 05:08:14;;;;;;;7.35;1.75;;;;;;;23.57;36.13;102153.06;5106873;28;20031;-44
2022/05/28 05:10:44;;;;;;;7.13;2.10;;;;;;;23.59;35.96;102161.88;5105411;28;20054;-44
2022/05/28 05:13:13;;;;;;;7.25;2.22;;;;;;;23.62;35.83;102157.59;5105308;28;20034;-46
2022/05/28 05:15:41;;;;;;;7.10;2.30;;;;;;;23.63;36.13;102158.50;5106361;28;20031;-44
2022/05/28 05:18:10;;;;;;;7.95;2.22;;;;;;;23.64;36.12;102155.06;5106579;28;20307;-45
2022/05/28 05:20:38;;;;;;;8.77;2.58;;;;;;;23.74;35.75;102154.50;5106692;28;20078;-46
2022/05/28 05:23:07;;;;;;;7.78;2.15;;;;;;;23.64;35.78;102149.81;5106483;28;20024;-47
2022/05/28 05:25:36;;;;;;;7.35;1.85;;;;;;;23.59;36.29;102159.25;5106674;28;20028;-46
2022/05/28 05:28:05;;;;;;;6.65;2.58;;;;;;;23.70;35.98;102155.25;5106160;28;20106;-45
2022/05/28 05:30:33;;;;;;;7.68;2.45;;;;;;;23.74;35.76;102159.75;5106420;28;20098;-45
2022/05/28 05:33:02;;;;;;;7.20;2.00;;;;;;;23.74;36.19;102162.38;5106207;28;20476;-46
2022/05/28 05:35:31;;;;;;;8.15;2.05;;;;;;;23.77;35.87;102157.25;5106623;28;20106;-45
2022/05/28 05:38:05;;;;;;;8.00;2.53;;;;;;;23.80;36.16;102159.97;5091005;28;20050;-47
2022/05/28 05:40:36;;;;;;;7.20;2.60;;;;;;;23.82;36.26;102163.53;5106355;28;20421;-44
2022/05/28 05:43:04;;;;;;;12.93;2.60;;;;;;;23.81;36.41;102163.47;5094650;28;20039;-48
2022/05/28 05:45:32;;;;;;;7.25;2.55;;;;;;;23.92;35.76;102164.69;5106057;28;20027;-44
2022/05/28 05:48:01;;;;;;;5.72;2.42;;;;;;;24.00;35.70;102185.06;5106271;28;20031;-46
2022/05/28 05:50:29;;;;;;;8.52;2.70;;;;;;;24.07;35.80;102187.94;5104986;28;20023;-44
2022/05/28 05:52:58;;;;;;;5.82;2.08;;;;;;;24.20;35.85;102180.44;5105913;28;20039;-45
2022/05/28 05:55:26;;;;;;;8.80;2.38;;;;;;;24.37;35.39;102184.47;5105913;28;20028;-47
2022/05/28 05:57:54;;;;;;;7.78;2.22;;;;;;;24.36;35.61;102182.69;5106271;28;20381;-48
2022/05/28 06:00:23;;;;;;;6.80;2.08;;;;;;;24.46;35.81;102190.88;5104722;28;20027;-48
2022/05/28 06:02:51;;;;;;;4.70;1.90;;;;;;;24.46;35.74;102190.88;5105733;28;20024;-49
2022/05/28 06:05:19;;;;;;;8.65;2.28;;;;;;;24.51;35.64;102184.00;5105693;28;20046;-44
2022/05/28 06:07:48;;;;;;;9.27;2.92;;;;;;;24.60;35.69;102193.88;5106163;28;20392;-49
2022/05/28 06:10:16;;;;;;;7.78;2.50;;;;;;;24.67;35.64;102191.47;5105383;28;20477;-44
2022/05/28 06:12:45;;;;;;;6.72;2.35;;;;;;;24.70;35.95;102183.75;5105573;28;20056;-47
2022/05/28 06:15:13;;;;;;;6.97;2.28;;;;;;;24.71;36.11;102188.16;5105766;28;20028;-44
2022/05/28 06:17:42;;;;;;;8.82;2.67;;;;;;;24.81;36.07;102193.69;5105613;28;20035;-46
2022/05/28 06:20:12;;;;;;;6.90;2.25;;;;;;;24.80;35.82;102186.66;5105466;28;20031;-46
2022/05/28 06:22:41;;;;;;;7.55;1.95;;;;;;;24.85;35.68;102182.41;5105157;28;20517;-45
2022/05/28 06:25:10;;;;;;;4.95;2.00;;;;;;;24.92;35.65;102189.63;5104969;28;20397;-45
2022/05/28 06:27:38;;;;;;;10.95;2.58;;;;;;;24.96;35.67;102180.09;5105156;28;20059;-45
2022/05/28 06:30:07;;;;;;;9.00;2.35;;;;;;;25.12;35.70;102174.41;5105090;28;20396;-47
2022/05/28 06:32:35;;;;;;;8.27;2.58;;;;;;;25.11;35.66;102177.00;5105132;28;20031;-44
2022/05/28 06:35:03;;;;;;;7.45;2.42;;;;;;;25.11;36.06;102177.00;5105350;28;20062;-47
2022/05/28 06:37:33;;;;;;;10.63;2.40;;;;;;;25.12;35.76;102168.28;5104988;28;20031;-48
2022/05/28 06:40:01;;;;;;;9.48;2.75;;;;;;;25.24;35.94;102175.56;5105016;28;20106;-48
2022/05/28 06:42:30;;;;;;;7.45;2.00;;;;;;;25.32;35.74;102174.06;5105145;28;20032;-46
2022/05/28 06:44:59;;;;;;;9.27;2.20;;;;;;;25.33;35.98;102176.72;5105044;28;20023;-44
2022/05/28 06:47:28;;;;;;;8.90;2.47;;;;;;;25.33;35.62;102173.22;5104814;28;20034;-45
2022/05/28 06:52:44;;;;;;;9.32;2.25;;;;;;;25.38;35.66;102170.69;5104542;28;20119;-43
2022/05/28 06:55:12;;;;;;;9.50;2.67;;;;;;;25.50;35.96;102168.41;5104520;28;20032;-46
2022/05/28 06:57:40;;;;;;;7.00;2.30;;;;;;;25.54;35.76;102172.91;5105039;28;20043;-52
2022/05/28 07:00:09;;;;;;;10.55;2.42;;;;;;;25.61;35.85;102177.47;5104571;28;20106;-46
2022/05/28 07:02:37;;;;;;;6.95;2.00;;;;;;;25.72;35.50;102161.06;5104265;28;20138;-45
2022/05/28 07:05:06;;;;;;;6.88;1.88;;;;;;;25.76;35.24;102158.56;5104585;28;20448;-45
2022/05/28 07:07:35;;;;;;;14.57;2.47;;;;;;;25.79;35.52;102168.28;5104829;28;20055;-44
2022/05/28 07:10:04;;;;;;;8.38;2.40;;;;;;;25.82;35.27;102154.31;5104672;28;20024;-44
2022/05/28 07:12:32;;;;;;;6.03;1.80;;;;;;;25.79;35.21;102148.13;5104806;28;20374;-44
2022/05/28 07:15:01;;;;;;;6.80;2.10;;;;;;;25.76;35.48;102152.44;5094572;28;20031;-47
2022/05/28 07:17:29;;;;;;;6.88;2.03;;;;;;;25.91;35.43;102167.66;5104381;28;20073;-45
2022/05/28 07:19:57;;;;;;;8.00;2.55;;;;;;;26.02;35.30;102149.50;5104172;28;20225;-44
2022/05/28 07:22:26;;;;;;;7.85;2.40;;;;;;;26.00;35.36;102167.91;5079909;28;20048;-48
2022/05/28 07:24:54;;;;;;;8.57;2.75;;;;;;;26.03;35.13;102156.53;5104865;28;20023;-44
2022/05/28 07:27:23;;;;;;;9.27;2.72;;;;;;;26.13;35.27;102165.56;5086161;28;20038;-47
2022/05/28 07:29:51;;;;;;;6.70;1.83;;;;;;;26.12;35.36;102154.19;5104184;28;20088;-44
2022/05/28 07:32:20;;;;;;;9.93;2.60;;;;;;;26.19;35.24;102153.44;5102510;28;20047;-45
2022/05/28 07:34:48;;;;;;;6.57;2.05;;;;;;;26.29;34.90;102159.81;5102495;28;20043;-45
2022/05/28 07:37:17;;;;;;;8.93;2.28;;;;;;;26.27;35.13;102156.25;5104162;28;20434;-45
2022/05/28 07:39:46;;;;;;;10.02;2.30;;;;;;;26.31;35.11;102157.22;5102236;28;20027;-45
2022/05/28 07:42:13;;;;;;;10.25;2.75;;;;;;;26.34;34.89;102158.16;5104122;28;20396;-48
2022/05/28 07:44:42;;;;;;;5.75;2.08;;;;;;;26.36;34.93;102153.84;5104177;28;20496;-45
2022/05/28 07:47:11;;;;;;;8.90;2.40;;;;;;;26.42;35.09;102155.69;5085714;28;20126;-44
2022/05/28 07:49:40;;;;;;;8.48;2.38;;;;;;;26.51;34.72;102157.66;5103888;28;20110;-48
2022/05/28 07:52:09;;;;;;;8.20;2.35;;;;;;;26.52;34.72;102147.13;5103728;28;20122;-45
2022/05/28 07:54:38;;;;;;;11.48;2.53;;;;;;;26.59;34.66;102152.53;5089147;28;20035;-46
2022/05/28 07:57:07;;;;;;;8.50;2.20;;;;;;;26.63;35.04;102154.38;5103766;28;20111;-44
2022/05/28 07:59:35;;;;;;;7.90;2.40;;;;;;;26.67;34.57;102154.47;5104046;28;20030;-49
2022/05/28 08:02:04;;;;;;;6.40;2.30;;;;;;;26.68;34.53;102152.72;5085954;28;20035;-44
2022/05/28 08:04:33;;;;;;;7.63;2.45;;;;;;;26.73;34.71;102158.06;5085773;28;20401;-46
2022/05/28 08:07:02;;;;;;;5.15;1.80;;;;;;;26.76;34.69;102164.31;5103739;28;20039;-44
2022/05/28 08:09:30;;;;;;;6.68;1.92;;;;;;;26.83;34.78;102160.06;5103458;28;20023;-47
2022/05/28 08:11:59;;;;;;;9.23;2.30;;;;;;;26.84;34.66;102156.59;5085444;28;20051;-44
2022/05/28 08:14:27;;;;;;;4.40;1.75;;;;;;;26.83;34.75;102145.16;5107122;28;20091;-44
2022/05/28 08:16:56;;;;;;;6.47;2.08;;;;;;;26.93;34.61;102158.50;5089873;28;20028;-43
2022/05/28 08:19:25;;;;;;;5.78;1.83;;;;;;;26.90;34.51;102140.03;5107338;28;20401;-47
2022/05/28 08:24:41;;;;;;;9.43;2.05;;;;;;;27.03;33.91;102142.03;5099768;28;20084;-44
2022/05/28 08:27:10;;;;;;;8.75;2.85;;;;;;;27.02;34.16;102136.75;5107524;28;20024;-44
2022/05/28 08:29:39;;;;;;;8.48;2.22;;;;;;;27.11;34.01;102153.59;5105632;28;20402;-44
2022/05/28 08:32:08;;;;;;;10.63;2.58;;;;;;;27.07;33.90;102142.94;5107062;28;20043;-44
2022/05/28 08:34:36;;;;;;;6.97;1.90;;;;;;;27.04;33.54;102129.75;5105906;28;20063;-45
2022/05/28 08:37:05;;;;;;;10.50;2.65;;;;;;;27.05;33.78;102140.31;5107692;28;20047;-48
2022/05/28 08:39:34;;;;;;;8.30;2.58;;;;;;;27.07;33.59;102135.06;5105832;28;20023;-49
2022/05/28 08:42:02;;;;;;;8.95;2.65;;;;;;;27.09;33.53;102139.50;5105874;28;20384;-44
2022/05/28 08:44:33;;;;;;;8.05;2.33;;;;;;;27.04;33.24;102125.34;5107055;28;20023;-44
2022/05/28 08:47:23;;;;;;;9.38;2.97;;;;;;;27.13;33.73;102137.81;5092135;28;20052;-49
2022/05/28 08:49:52;;;;;;;8.30;1.98;;;;;;;27.10;33.31;102138.66;5105498;28;20063;-44
2022/05/28 08:52:27;;;;;;;9.90;2.40;;;;;;;27.12;33.01;102138.66;5106765;28;20058;-45
2022/05/28 08:55:06;;;;;;;8.25;2.70;;;;;;;27.09;32.71;102134.25;5105427;28;20053;-44
2022/05/28 08:58:00;;;;;;;7.45;2.60;;;;;;;27.13;33.11;102125.53;5106103;28;20592;-46
2022/05/28 09:00:48;;;;;;;11.60;2.75;;;;;;;27.12;32.80;102129.03;5099957;28;20062;-46
2022/05/28 09:03:22;;;;;;;11.55;2.65;;;;;;;27.09;32.64;102121.06;5106832;28;20032;-44
2022/05/28 09:05:53;;;;;;;8.60;2.28;;;;;;;27.11;32.74;102131.63;5107018;28;20511;-46
2022/05/28 09:08:30;;;;;;;12.93;2.47;;;;;;;27.09;32.80;102130.72;5088811;28;20446;-44
2022/05/28 09:11:04;;;;;;;10.75;2.92;;;;;;;27.11;32.30;102126.34;5106544;28;20043;-44
2022/05/28 09:13:45;;;;;;;6.90;2.22;;;;;;;27.08;32.39;102129.84;5088906;28;20503;-44
2022/05/28 09:16:22;;;;;;;13.38;3.08;;;;;;;27.07;32.31;102128.06;5106393;28;20408;-44
2022/05/28 09:18:52;;;;;;;14.20;3.22;;;;;;;27.15;32.22;102131.69;5105252;28;20122;-44
2022/05/28 09:21:21;;;;;;;9.43;2.47;;;;;;;27.27;32.35;102132.81;5106752;28;20423;-44
2022/05/28 09:24:02;;;;;;;9.88;2.67;;;;;;;27.16;32.63;102127.34;5104767;28;20031;-48
2022/05/28 09:26:52;;;;;;;10.43;3.17;;;;;;;27.17;31.86;102131.75;5087733;28;20028;-44
2022/05/28 09:29:40;;;;;;;7.55;2.30;;;;;;;27.17;32.26;102125.56;5102416;28;20039;-44
2022/05/28 09:32:19;;;;;;;10.73;2.95;;;;;;;27.17;31.80;102117.66;5106462;28;20431;-44
2022/05/28 09:34:56;;;;;;;9.18;2.80;;;;;;;27.17;32.05;102120.31;5106094;28;20484;-44
2022/05/28 09:37:37;;;;;;;11.05;2.65;;;;;;;27.06;32.06;102106.94;5105377;28;20024;-48
2022/05/28 09:40:13;;;;;;;11.18;2.72;;;;;;;27.14;31.83;102110.63;5104938;28;20034;-47
2022/05/28 09:43:04;;;;;;;6.95;2.60;;;;;;;27.14;31.85;102103.59;5104970;28;20176;-43
2022/05/28 09:45:54;;;;;;;9.23;2.70;;;;;;;27.12;31.26;102107.06;5102917;27;20123;-44
2022/05/28 09:48:25;;;;;;;9.48;2.67;;;;;;;27.11;31.43;102107.91;5102733;28;20035;-44
2022/05/28 09:50:54;;;;;;;6.78;2.67;;;;;;;27.07;31.57;102095.53;5106077;28;20042;-47
2022/05/28 09:54:24;;;;;;;10.60;2.70;;;;;;;27.12;31.58;102091.25;5105715;28;20109;-44
2022/05/28 09:56:36;;;;;;;17.08;2.83;;;;;;;27.02;31.74;102087.56;5102196;27;20039;-45
2022/05/28 09:59:28;;;;;;;11.55;3.08;;;;;;;26.99;31.74;102084.88;5104927;28;20059;-47
2022/05/28 10:02:07;;;;;;;14.23;3.50;;;;;;;27.03;31.20;102078.81;5105946;28;21060;-44
2022/05/28 10:04:47;;;;;;;10.98;2.83;;;;;;;27.02;31.30;102087.56;5106106;28;20034;-47
2022/05/28 10:07:16;;;;;;;9.05;3.10;;;;;;;26.90;31.32;102051.38;5105341;28;20092;-44
2022/05/28 10:09:54;;;;;;;10.73;3.08;;;;;;;27.10;31.22;102078.06;5087434;28;20084;-49
2022/05/28 10:12:29;;;;;;;10.27;2.70;;;;;;;27.11;31.31;102081.59;5105121;28;20126;-45
2022/05/28 10:15:18;;;;;;;10.13;2.55;;;;;;;27.11;31.06;102082.47;5105619;28;20059;-45
2022/05/28 10:17:57;;;;;;;9.45;2.58;;;;;;;27.13;30.86;102077.22;5105336;28;20039;-46
2022/05/28 10:20:26;;;;;;;11.45;2.35;;;;;;;27.10;31.51;102077.16;5105852;28;20028;-44
2022/05/28 10:22:56;;;;;;;9.02;2.65;;;;;;;27.12;30.81;102065.81;5104901;28;20027;-45
2022/05/28 10:25:30;;;;;;;12.73;2.45;;;;;;;27.12;30.46;102063.19;5086890;28;20031;-46
2022/05/28 10:28:00;;;;;;;14.57;2.75;;;;;;;27.08;30.65;102056.09;5105082;28;20388;-47
2022/05/28 10:30:47;;;;;;;7.18;2.00;;;;;;;27.21;30.41;102062.47;5105074;28;20032;-46
2022/05/28 10:33:22;;;;;;;5.00;2.08;;;;;;;27.19;30.49;102058.91;5104747;28;20158;-48
2022/05/28 10:35:52;;;;;;;11.02;3.00;;;;;;;27.19;30.17;102056.28;5103532;28;20055;-50
2022/05/28 10:38:25;;;;;;;16.45;3.35;;;;;;;27.14;29.66;102058.81;5103859;28;20039;-47
2022/05/28 10:40:56;;;;;;;9.13;2.65;;;;;;;27.11;30.23;102061.41;5086606;28;20080;-48
2022/05/28 10:43:29;;;;;;;10.23;2.92;;;;;;;27.09;30.55;102057.88;5103042;28;20024;-44
2022/05/28 10:46:20;;;;;;;10.52;2.63;;;;;;;27.13;30.76;102061.44;5094264;28;20115;-47
2022/05/28 10:49:08;;;;;;;7.32;2.33;;;;;;;27.19;30.89;102053.63;5104676;28;20506;-49
2022/05/28 10:51:53;;;;;;;9.00;2.90;;;;;;;27.24;30.52;102056.34;5096167;28;20130;-47
2022/05/28 10:54:29;;;;;;;9.48;2.58;;;;;;;27.26;30.47;102046.72;5104632;28;20425;-44
2022/05/28 10:57:26;;;;;;;9.45;2.97;;;;;;;27.19;30.28;102044.84;5104629;28;20061;-50
2022/05/28 11:00:13;;;;;;;8.82;2.40;;;;;;;27.18;29.30;102038.69;5100573;28;20038;-43
2022/05/28 11:03:00;;;;;;;8.05;2.75;;;;;;;27.09;29.31;102039.44;5095849;28;20110;-49
2022/05/28 11:05:57;;;;;;;9.75;2.13;;;;;;;27.06;29.40;102041.09;5096996;28;20046;-47
2022/05/28 11:08:38;;;;;;;11.10;2.45;;;;;;;26.96;30.07;102030.44;5099853;28;20039;-44
2022/05/28 11:11:29;;;;;;;8.10;2.72;;;;;;;27.07;29.78;102032.34;5104327;28;20056;-43
2022/05/28 11:13:57;;;;;;;11.95;3.05;;;;;;;27.04;29.45;102025.28;5102960;28;20031;-44
2022/05/28 11:16:46;;;;;;;8.38;2.65;;;;;;;27.00;29.78;102018.19;5104556;28;20421;-50
2022/05/28 11:19:34;;;;;;;12.32;2.65;;;;;;;26.96;29.77;102000.59;5103086;28;20555;-46
2022/05/28 11:22:40;;;;;;;9.30;2.20;;;;;;;27.04;29.72;102003.34;5100961;28;20036;-45
2022/05/28 11:25:13;;;;;;;5.43;2.15;;;;;;;27.13;30.27;102004.38;5096516;28;20136;-45
2022/05/28 11:27:48;;;;;;;8.95;2.55;;;;;;;27.19;29.86;102002.69;5104430;28;20468;-43
2022/05/28 11:30:21;;;;;;;9.52;2.97;;;;;;;27.16;29.88;102008.81;5102864;28;20119;-44
2022/05/28 11:33:29;;;;;;;9.73;2.50;;;;;;;27.14;29.94;102003.50;5102376;28;20028;-44
2022/05/28 11:36:02;;;;;;;8.65;2.65;;;;;;;27.12;29.83;101996.44;5101520;28;20070;-44
2022/05/28 11:38:43;;;;;;;9.13;2.38;;;;;;;27.07;30.10;102001.63;5075879;28;20329;-44
2022/05/28 11:41:26;;;;;;;10.50;2.50;;;;;;;27.10;30.04;101999.06;5103801;28;20033;-44
2022/05/28 11:44:12;;;;;;;8.60;2.75;;;;;;;27.10;30.41;101991.16;5069637;28;20111;-44
2022/05/28 11:46:48;;;;;;;9.85;2.55;;;;;;;27.12;29.13;101983.28;5102453;28;20026;-45
2022/05/28 11:52:30;;;;;;;8.15;2.38;;;;;;;27.17;29.99;101983.34;5091694;28;20085;-44
2022/05/28 11:55:02;;;;;;;7.85;2.75;;;;;;;27.20;29.29;101970.22;5104131;28;20293;-44
2022/05/28 11:57:43;;;;;;;10.45;2.40;;;;;;;27.21;29.67;101972.91;5103757;28;20038;-45
2022/05/28 12:00:13;;;;;;;9.00;2.10;;;;;;;27.19;29.70;101971.06;5103324;28;20544;-44